Time;durP1;ratioP1;P1;durP2;ratioP2;P2;SDS_P1;SDS_P2;PMS_P1;PMS_P2;Temp;Humidity;BMP_temperature;BMP_pressure;BME280_temperature;BME280_humidity;BME280_pressure;Samples;Min_cycle;Max_cycle;Signal;HPM_P1;HPM_P2
2022/06/06 00:00:01;;;;;;;5.10;3.67;;;;;;;21.50;55.61;93828.88;5103775;28;20319;-89
2022/06/06 00:02:29;;;;;;;9.60;4.18;;;;;;;21.52;55.42;93842.06;5103720;28;20031;-90
2022/06/06 00:04:54;;;;;;;9.43;3.95;;;;;;;21.46;55.61;93828.09;5103791;28;20024;-89
2022/06/06 00:07:20;;;;;;;14.00;4.47;;;;;;;21.40;55.92;93835.03;5085768;28;20341;-89
2022/06/06 00:09:46;;;;;;;9.48;3.95;;;;;;;21.38;55.95;93831.91;5085741;28;20031;-89
2022/06/06 00:12:11;;;;;;;13.30;3.38;;;;;;;21.34;55.85;93837.31;5103612;28;20024;-89
2022/06/06 00:14:37;;;;;;;8.68;3.55;;;;;;;21.29;55.27;93823.34;5103157;28;20044;-88
2022/06/06 00:17:03;;;;;;;7.07;3.50;;;;;;;21.22;55.26;93829.53;5085726;28;20027;-90
2022/06/06 00:19:28;;;;;;;11.70;4.05;;;;;;;21.16;55.85;93820.97;5103597;28;20016;-90
2022/06/06 00:21:57;;;;;;;7.50;3.80;;;;;;;21.04;56.02;93818.59;5103990;28;20028;-92
2022/06/06 00:24:23;;;;;;;7.63;3.85;;;;;;;21.08;56.46;93818.63;5103885;28;20043;-90
2022/06/06 00:26:48;;;;;;;8.70;4.25;;;;;;;21.09;57.01;93815.56;5103576;28;20315;-90
2022/06/06 00:29:17;;;;;;;9.80;3.70;;;;;;;21.10;56.76;93821.75;5085806;28;20024;-90
2022/06/06 00:34:48;;;;;;;7.65;3.65;;;;;;;21.07;57.85;93806.25;5105251;28;20038;-92
2022/06/06 00:37:16;;;;;;;7.10;3.83;;;;;;;21.01;57.68;93795.00;5105832;28;20078;-93
2022/06/06 00:39:43;;;;;;;8.80;3.88;;;;;;;21.04;57.52;93786.91;5105973;28;20049;-91
2022/06/06 00:42:12;;;;;;;11.30;4.10;;;;;;;20.98;57.37;93776.78;5105561;28;20024;-91
2022/06/06 00:44:40;;;;;;;8.13;3.90;;;;;;;20.95;57.46;93774.84;5105001;28;20077;-90
2022/06/06 00:47:26;;;;;;;8.00;3.80;;;;;;;20.94;56.68;93771.34;5105172;28;20019;-91
2022/06/06 00:49:55;;;;;;;8.75;3.97;;;;;;;20.96;56.86;93779.09;5104471;28;20091;-91
2022/06/06 00:52:28;;;;;;;10.95;4.10;;;;;;;20.96;56.25;93770.97;5103306;28;20091;-90
2022/06/06 00:54:58;;;;;;;6.35;3.70;;;;;;;20.97;56.20;93753.56;5085253;28;20031;-91
2022/06/06 00:57:29;;;;;;;12.88;4.15;;;;;;;21.01;56.32;93759.78;5103376;28;20027;-89
2022/06/06 00:59:56;;;;;;;6.57;3.70;;;;;;;21.01;56.38;93738.88;5103546;28;20031;-90
2022/06/06 01:02:21;;;;;;;5.70;3.47;;;;;;;21.07;56.61;93752.06;5103359;28;20027;-90
2022/06/06 01:04:47;;;;;;;8.68;3.63;;;;;;;21.04;55.96;93743.53;5103174;28;20012;-90
2022/06/06 01:07:14;;;;;;;8.20;3.78;;;;;;;21.06;55.70;93732.28;5102904;28;20015;-89
2022/06/06 01:09:42;;;;;;;13.35;3.90;;;;;;;21.08;55.86;93729.97;5106374;28;20099;-90
2022/06/06 01:12:11;;;;;;;10.27;4.30;;;;;;;21.11;56.68;93728.47;5107573;28;20032;-89
2022/06/06 01:14:42;;;;;;;7.05;3.42;;;;;;;21.12;56.52;93724.59;5107496;28;20036;-90
2022/06/06 01:17:10;;;;;;;6.60;3.55;;;;;;;21.14;56.36;93704.06;5107387;28;20086;-90
2022/06/06 01:20:03;;;;;;;10.60;3.28;;;;;;;21.17;56.63;93706.03;5107525;28;20200;-90
2022/06/06 01:22:38;;;;;;;6.78;4.03;;;;;;;21.20;57.64;93709.88;5107303;28;20028;-90
2022/06/06 01:25:10;;;;;;;9.65;3.75;;;;;;;21.17;59.05;93708.72;5107650;28;20016;-90
2022/06/06 01:28:12;;;;;;;14.30;4.00;;;;;;;21.19;60.19;93700.22;5107971;28;20055;-90
2022/06/06 01:30:40;;;;;;;;;;;;;;;21.12;61.60;93692.84;5107155;28;20016;-88
2022/06/06 01:33:10;;;;;;;12.90;4.28;;;;;;;21.04;63.08;93697.47;5107004;28;19918;-89
2022/06/06 01:35:44;;;;;;;18.88;4.65;;;;;;;21.03;63.93;93703.28;5089306;28;20322;-89
2022/06/06 01:38:12;;;;;;;14.30;4.80;;;;;;;20.92;63.65;93757.41;5106681;28;20012;-89
2022/06/06 01:41:03;;;;;;;9.82;3.67;;;;;;;20.37;61.84;93842.19;5106809;28;20023;-86
2022/06/06 01:43:54;;;;;;;13.25;5.20;;;;;;;20.00;60.77;93842.25;5106120;28;20023;-88
2022/06/06 01:46:26;;;;;;;13.98;4.53;;;;;;;19.78;61.38;93833.97;5105894;28;20035;-87
2022/06/06 01:48:53;;;;;;;16.00;5.83;;;;;;;19.22;68.99;93851.84;5106319;28;20054;-86
2022/06/06 01:51:25;;;;;;;12.60;5.88;;;;;;;18.34;73.28;93839.47;5106113;28;20024;-87
2022/06/06 01:53:52;;;;;;;20.63;5.78;;;;;;;17.75;78.33;93822.69;5106528;28;20019;-88
2022/06/06 01:56:25;;;;;;;13.00;3.72;;;;;;;17.55;79.79;93802.31;5105813;28;20051;-89
2022/06/06 01:58:50;;;;;;;10.02;3.83;;;;;;;17.45;79.65;93766.72;5108586;28;20024;-92
2022/06/06 02:01:16;;;;;;;10.23;3.03;;;;;;;17.41;80.73;93757.81;5107480;28;20058;-93
2022/06/06 02:03:42;;;;;;;8.80;2.30;;;;;;;17.41;79.95;93782.03;5089120;28;20027;-92
2022/06/06 02:06:08;;;;;;;8.98;2.55;;;;;;;17.56;77.93;93782.28;5107002;28;20028;-92
2022/06/06 02:08:33;;;;;;;7.90;2.80;;;;;;;17.66;77.38;93781.69;5107521;28;20024;-91
2022/06/06 02:10:59;;;;;;;8.45;2.10;;;;;;;17.59;77.90;93798.53;5107305;28;20046;-91
2022/06/06 02:13:25;;;;;;;13.52;3.75;;;;;;;17.64;76.48;93805.53;5107170;28;20030;-93
2022/06/06 02:15:51;;;;;;;11.68;2.45;;;;;;;17.74;74.71;93814.94;5107618;28;20085;-92
2022/06/06 02:18:17;;;;;;;13.85;2.58;;;;;;;17.82;76.87;93844.34;5107339;28;20023;-93
2022/06/06 02:20:42;;;;;;;8.93;2.15;;;;;;;17.89;75.04;93856.44;5106817;28;20031;-92
2022/06/06 02:23:08;;;;;;;10.57;2.03;;;;;;;17.98;75.44;93868.53;5106458;28;20310;-92
2022/06/06 02:25:34;;;;;;;10.88;2.65;;;;;;;18.02;74.08;93874.00;5106226;28;20087;-90
2022/06/06 02:28:01;;;;;;;11.52;2.53;;;;;;;18.11;75.10;93888.00;5105938;28;20028;-90
2022/06/06 02:30:30;;;;;;;9.20;2.50;;;;;;;18.08;75.43;93899.53;5105896;28;20019;-90
2022/06/06 02:32:56;;;;;;;16.33;2.78;;;;;;;18.09;73.97;93886.81;5105787;28;20031;-90
2022/06/06 02:35:25;;;;;;;14.75;3.47;;;;;;;18.11;74.71;93908.81;5105806;28;20318;-89
2022/06/06 02:37:52;;;;;;;16.23;3.88;;;;;;;18.11;74.71;93925.78;5105669;28;20027;-89
2022/06/06 02:40:20;;;;;;;30.73;3.63;;;;;;;18.11;75.91;93909.59;5105399;28;20195;-88
2022/06/06 02:42:46;;;;;;;13.77;3.20;;;;;;;18.12;77.27;93888.81;5105481;28;20057;-90
2022/06/06 02:45:15;;;;;;;17.92;3.42;;;;;;;18.12;77.99;93873.41;5105535;28;20020;-90
2022/06/06 02:47:41;;;;;;;11.13;2.65;;;;;;;18.07;74.49;93851.34;5105497;28;20033;-90
2022/06/06 02:50:09;;;;;;;11.30;3.25;;;;;;;18.10;76.88;93829.84;5105510;28;20032;-89
2022/06/06 02:52:35;;;;;;;11.82;3.30;;;;;;;18.09;78.21;93814.78;5105435;28;20023;-89
2022/06/06 02:55:01;;;;;;;14.90;4.05;;;;;;;18.12;79.19;93797.13;5105357;28;20095;-90
2022/06/06 02:57:27;;;;;;;17.33;4.82;;;;;;;18.17;80.03;93762.50;5105414;28;20016;-90
2022/06/06 02:59:57;;;;;;;13.30;3.80;;;;;;;18.31;80.29;93755.75;5105063;28;20091;-88
2022/06/06 03:02:23;;;;;;;16.25;3.63;;;;;;;18.40;80.68;93765.16;5104862;28;20039;-88
2022/06/06 03:04:48;;;;;;;18.90;4.25;;;;;;;18.50;80.56;93769.16;5086674;28;20183;-88
2022/06/06 03:07:37;;;;;;;13.52;3.55;;;;;;;18.56;80.20;93773.09;5104424;28;20062;-88
2022/06/06 03:10:27;;;;;;;21.33;4.47;;;;;;;18.64;80.39;93782.81;5104544;28;20191;-88
2022/06/06 03:13:14;;;;;;;22.40;5.35;;;;;;;18.64;80.60;93798.22;5104272;28;20090;-88
2022/06/06 03:22:44;;;;;;;23.05;4.90;;;;;;;18.66;82.01;93849.94;5104272;28;20031;-88
2022/06/06 03:25:32;;;;;;;11.95;4.30;;;;;;;18.71;81.79;93859.66;5104261;28;20035;-88
2022/06/06 03:28:04;;;;;;;28.52;5.72;;;;;;;18.75;82.16;93865.88;5104338;28;20069;-88
2022/06/06 03:30:41;;;;;;;11.48;4.40;;;;;;;18.82;82.20;93871.41;5103534;28;20051;-88
2022/06/06 03:33:09;;;;;;;18.00;5.90;;;;;;;18.80;81.72;93887.94;5104230;28;20098;-88
2022/06/06 03:35:49;;;;;;;19.15;5.00;;;;;;;18.83;81.33;93899.97;5104068;28;20129;-88
2022/06/06 03:38:43;;;;;;;21.10;5.55;;;;;;;18.87;81.63;93900.78;5104001;28;20028;-88
2022/06/06 03:41:41;;;;;;;14.40;5.43;;;;;;;18.94;81.46;93892.78;5095402;28;20040;-89
2022/06/06 03:44:27;;;;;;;14.32;6.47;;;;;;;18.96;81.47;93897.81;5103939;28;20024;-88
2022/06/06 03:47:14;;;;;;;15.00;5.45;;;;;;;18.93;81.27;93888.53;5103925;28;20234;-89
2022/06/06 03:50:01;;;;;;;19.40;6.60;;;;;;;18.93;82.23;93891.25;5104220;28;20089;-91
2022/06/06 03:52:33;;;;;;;16.08;7.13;;;;;;;18.93;82.38;93883.13;5104468;28;20148;-91
2022/06/06 03:55:18;;;;;;;20.73;9.63;;;;;;;18.93;82.41;93876.94;5104514;28;20020;-91
2022/06/06 03:57:47;;;;;;;16.10;6.82;;;;;;;18.97;82.19;93873.16;5104356;28;20020;-91
2022/06/06 04:00:14;;;;;;;13.77;7.10;;;;;;;18.97;82.09;93866.97;5104469;28;20257;-92
2022/06/06 04:02:43;;;;;;;11.18;5.90;;;;;;;19.02;81.49;93858.56;5104200;28;20034;-90
2022/06/06 04:05:15;;;;;;;18.58;5.93;;;;;;;19.04;81.53;93865.13;5104201;28;20012;-91
2022/06/06 04:07:41;;;;;;;18.45;7.85;;;;;;;19.09;81.28;93864.06;5104053;28;20028;-89
2022/06/06 04:10:08;;;;;;;14.77;6.35;;;;;;;19.13;80.82;93853.28;5104046;28;20047;-89
2022/06/06 04:13:00;;;;;;;17.77;7.65;;;;;;;19.14;80.76;93849.44;5103481;28;20023;-88
2022/06/06 04:15:49;;;;;;;19.85;7.95;;;;;;;19.09;80.48;93842.44;5103233;28;20040;-88
2022/06/06 04:18:35;;;;;;;18.75;8.80;;;;;;;19.12;80.50;93846.31;5097592;28;20028;-88
2022/06/06 04:21:10;;;;;;;19.50;8.95;;;;;;;19.10;80.37;93854.03;5103277;28;20096;-88
2022/06/06 04:23:53;;;;;;;14.80;7.80;;;;;;;19.07;80.51;93857.44;5085509;28;20118;-91
2022/06/06 04:26:28;;;;;;;18.90;8.77;;;;;;;19.06;80.51;93869.41;5103915;28;20085;-90
2022/06/06 04:29:15;;;;;;;14.85;9.00;;;;;;;19.09;80.63;93863.25;5103031;28;20034;-89
2022/06/06 04:31:54;;;;;;;14.70;9.10;;;;;;;19.11;80.74;93866.38;5103328;28;20039;-88
2022/06/06 04:34:40;;;;;;;25.10;9.15;;;;;;;19.14;81.00;93869.13;5103110;28;20023;-88
2022/06/06 04:37:22;;;;;;;20.85;9.43;;;;;;;19.20;80.76;93859.56;5103563;28;20028;-90
2022/06/06 04:40:11;;;;;;;14.68;9.60;;;;;;;19.24;80.67;93860.38;5103709;28;20026;-90
2022/06/06 04:43:12;;;;;;;12.90;7.95;;;;;;;19.32;80.67;93861.25;5102989;28;20091;-91
2022/06/06 04:45:49;;;;;;;19.63;9.52;;;;;;;19.43;80.31;93866.75;5072092;28;20036;-89
2022/06/06 04:48:16;;;;;;;20.67;9.35;;;;;;;19.54;79.63;93872.28;5103499;28;20020;-89
2022/06/06 04:50:44;;;;;;;13.52;8.85;;;;;;;19.65;79.86;93867.78;5103300;28;20087;-87
2022/06/06 04:53:20;;;;;;;21.58;9.18;;;;;;;19.71;79.48;93870.97;5103533;28;20051;-89
2022/06/06 04:55:48;;;;;;;15.48;9.00;;;;;;;19.74;78.28;93876.41;5103240;28;20048;-89
2022/06/06 04:58:15;;;;;;;17.85;8.63;;;;;;;19.76;77.84;93890.34;5103126;28;20222;-89
2022/06/06 05:00:42;;;;;;;16.80;8.75;;;;;;;19.86;76.61;93894.28;5103350;28;20024;-89
2022/06/06 05:03:07;;;;;;;15.45;8.82;;;;;;;19.83;75.65;93893.09;5103374;28;20039;-90
2022/06/06 05:05:45;;;;;;;12.60;7.30;;;;;;;19.80;75.37;93887.66;5085353;28;20023;-90
2022/06/06 05:08:19;;;;;;;14.82;8.05;;;;;;;19.77;74.91;93889.19;5103254;28;20024;-90
2022/06/06 05:11:15;;;;;;;18.38;8.77;;;;;;;19.71;75.84;93882.56;5103375;28;20101;-88
2022/06/06 05:13:51;;;;;;;16.95;7.38;;;;;;;19.76;75.17;93878.72;5103321;28;20056;-89
2022/06/06 05:16:16;;;;;;;18.17;8.52;;;;;;;19.75;75.33;93886.06;5085739;28;20032;-89
2022/06/06 05:19:31;;;;;;;16.27;7.50;;;;;;;19.76;76.66;93895.75;5107013;28;20035;-94
2022/06/06 05:22:31;;;;;;;17.13;8.43;;;;;;;19.76;77.62;93884.94;5110828;28;20024;-93
2022/06/06 05:25:39;;;;;;;19.58;8.70;;;;;;;19.80;77.66;93904.69;5108529;28;20267;-94
2022/06/06 05:28:36;;;;;;;23.13;8.63;;;;;;;19.67;77.50;93900.63;5106597;28;20062;-93
2022/06/06 05:31:28;;;;;;;16.75;8.77;;;;;;;19.69;77.90;93903.75;5106869;28;20052;-94
2022/06/06 05:34:03;;;;;;;22.10;8.82;;;;;;;19.73;77.77;93893.78;5071254;28;20036;-95
2022/06/06 05:36:54;;;;;;;24.00;8.80;;;;;;;19.75;77.93;93899.59;5103623;28;20043;-87
2022/06/06 05:39:38;;;;;;;21.13;8.93;;;;;;;19.79;78.04;93900.41;5102284;28;20371;-90
2022/06/06 05:42:29;;;;;;;13.40;9.02;;;;;;;19.84;77.74;93900.09;5103527;28;20023;-90
2022/06/06 05:45:22;;;;;;;18.02;8.73;;;;;;;19.94;77.33;93900.56;5104116;28;20035;-88
2022/06/06 05:48:06;;;;;;;14.93;7.63;;;;;;;20.15;76.52;93905.38;5104251;28;20016;-89
2022/06/06 05:50:48;;;;;;;15.95;8.15;;;;;;;20.34;75.63;93902.47;5102651;28;20016;-88
2022/06/06 05:53:40;;;;;;;14.40;7.07;;;;;;;20.45;72.51;93905.25;5102993;28;20281;-88
2022/06/06 05:56:40;;;;;;;11.48;6.75;;;;;;;20.64;73.17;93910.47;5105901;28;20403;-88
2022/06/06 05:59:43;;;;;;;11.52;7.20;;;;;;;20.81;74.49;93900.91;5106061;28;20024;-89
2022/06/06 06:02:27;;;;;;;19.35;7.55;;;;;;;21.00;72.41;93893.69;5106148;28;20055;-88
2022/06/06 06:05:15;;;;;;;21.75;10.48;;;;;;;21.08;72.23;93892.56;5106318;28;20031;-88
2022/06/06 06:08:06;;;;;;;21.95;7.25;;;;;;;21.15;70.35;93894.56;5105844;28;20073;-87
2022/06/06 06:10:46;;;;;;;28.33;7.68;;;;;;;21.10;69.71;93906.50;5106017;28;20016;-86
2022/06/06 06:13:18;;;;;;;25.55;8.10;;;;;;;21.15;70.32;93894.56;5105806;28;20087;-87
2022/06/06 06:15:44;;;;;;;18.67;6.20;;;;;;;21.33;70.88;93895.41;5105665;28;20043;-88
2022/06/06 06:18:16;;;;;;;16.55;5.05;;;;;;;21.40;68.16;93897.38;5105904;28;20262;-82
2022/06/06 06:20:49;;;;;;;19.17;4.93;;;;;;;21.55;67.98;93907.13;5103755;28;20028;-73
2022/06/06 06:23:21;;;;;;;16.77;4.75;;;;;;;21.78;68.63;93915.00;5103998;28;20069;-71
2022/06/06 06:25:49;;;;;;;16.17;4.55;;;;;;;21.91;66.50;93901.84;5086944;28;20039;-76
2022/06/06 06:28:14;;;;;;;12.25;4.90;;;;;;;22.08;66.35;93905.75;5105149;28;20222;-76
2022/06/06 06:31:08;;;;;;;16.13;5.05;;;;;;;22.24;65.21;93900.00;5104951;28;20016;-76
2022/06/06 06:34:01;;;;;;;20.65;6.22;;;;;;;22.34;65.46;93898.44;5102554;28;20343;-74
2022/06/06 06:36:36;;;;;;;14.48;4.55;;;;;;;22.39;64.20;93887.97;5105372;28;20095;-93
2022/06/06 06:39:22;;;;;;;15.27;5.03;;;;;;;22.21;63.54;93887.94;5109167;28;20182;-95
2022/06/06 06:42:15;;;;;;;11.85;4.85;;;;;;;22.29;63.88;93886.03;5109281;28;20016;-95
2022/06/06 06:44:47;;;;;;;10.15;5.28;;;;;;;22.39;63.84;93879.06;5109689;28;20028;-94
2022/06/06 06:47:26;;;;;;;14.25;5.47;;;;;;;22.33;64.13;93869.75;5090821;28;20381;-94
2022/06/06 06:50:05;;;;;;;15.68;5.68;;;;;;;22.20;65.14;93864.66;5108299;28;20094;-94
2022/06/06 06:53:13;;;;;;;18.27;6.72;;;;;;;22.13;66.22;93853.81;5109528;28;20024;-94
2022/06/06 06:56:20;;;;;;;16.23;6.28;;;;;;;22.14;66.72;93855.34;5109528;28;20348;-95
2022/06/06 06:59:18;;;;;;;22.15;8.00;;;;;;;22.01;66.43;93851.47;5103099;28;20043;-93
2022/06/06 07:11:21;;;;;;;15.10;6.65;;;;;;;21.99;65.83;93848.38;5105698;28;20030;-92
2022/06/06 07:14:14;;;;;;;14.57;7.18;;;;;;;21.94;67.17;93835.16;5105401;28;20044;-92
2022/06/06 07:16:40;;;;;;;20.23;6.50;;;;;;;21.92;67.17;93832.84;5105835;28;20027;-92
2022/06/06 07:19:41;;;;;;;12.00;6.97;;;;;;;21.92;67.82;93834.78;5105931;28;20123;-95
2022/06/06 07:22:09;;;;;;;26.77;7.78;;;;;;;22.02;67.08;93831.28;5101644;28;20032;-95
2022/06/06 07:24:35;;;;;;;24.58;7.78;;;;;;;22.04;66.53;93827.06;5414149;22;20287;-96
2022/06/06 07:27:01;;;;;;;28.52;8.30;;;;;;;21.97;66.97;93823.56;5088960;28;20031;-94
2022/06/06 07:29:27;;;;;;;24.48;9.45;;;;;;;21.99;67.31;93826.66;5108777;28;20020;-96
2022/06/06 07:32:13;;;;;;;24.67;9.13;;;;;;;22.14;67.51;93827.44;5107966;28;20058;-94
2022/06/06 07:35:24;;;;;;;20.15;8.75;;;;;;;22.14;66.05;93830.91;5106479;28;20024;-92
2022/06/06 07:37:55;;;;;;;19.08;7.93;;;;;;;22.29;67.24;93836.38;5105783;28;20032;-91
2022/06/06 07:40:33;;;;;;;16.60;7.60;;;;;;;22.37;66.13;93854.25;5105081;28;20095;-91
2022/06/06 07:43:22;;;;;;;25.02;8.45;;;;;;;22.43;67.12;93853.47;5104998;28;20031;-91
2022/06/06 07:45:54;;;;;;;22.35;7.30;;;;;;;22.44;66.04;93851.50;5104043;28;20024;-93
2022/06/06 07:48:37;;;;;;;21.67;9.10;;;;;;;22.51;65.71;93851.53;5105224;28;20020;-92
2022/06/06 07:51:29;;;;;;;19.48;8.10;;;;;;;22.68;64.49;93847.22;5104518;28;20311;-93
2022/06/06 07:53:57;;;;;;;25.65;7.95;;;;;;;22.74;64.87;93845.66;5104105;28;20035;-92
2022/06/06 07:56:48;;;;;;;21.40;7.85;;;;;;;22.93;66.65;93858.03;5104782;28;20028;-92
2022/06/06 07:59:26;;;;;;;21.67;8.55;;;;;;;23.03;63.74;93840.97;5105171;28;20031;-92
2022/06/06 08:01:52;;;;;;;22.80;7.78;;;;;;;23.25;63.39;93854.50;5105666;28;20028;-92
2022/06/06 08:04:45;;;;;;;27.67;8.25;;;;;;;23.28;64.18;93853.69;5104168;28;20095;-93
2022/06/06 08:07:27;;;;;;;19.08;7.88;;;;;;;23.49;63.40;93844.69;5105506;28;20313;-94
2022/06/06 08:09:55;;;;;;;13.82;6.50;;;;;;;23.66;63.04;93847.72;5104806;28;20065;-87
2022/06/06 08:12:43;;;;;;;19.27;6.25;;;;;;;23.80;58.97;93845.72;5085746;28;20329;-86
2022/06/06 08:16:03;;;;;;;27.27;6.53;;;;;;;23.94;59.45;93852.25;5102938;28;20218;-89
2022/06/06 08:18:30;;;;;;;19.25;5.25;;;;;;;24.05;58.77;93858.41;5061477;28;20335;-88
2022/06/06 08:21:23;;;;;;;21.35;5.68;;;;;;;24.18;59.65;93862.22;5101700;28;20032;-87
2022/06/06 08:23:52;;;;;;;17.83;5.47;;;;;;;24.23;58.09;93867.22;5103594;28;20076;-88
2022/06/06 08:26:19;;;;;;;15.48;4.70;;;;;;;24.29;56.72;93869.53;5085602;28;20071;-84
2022/06/06 08:28:45;;;;;;;19.15;4.63;;;;;;;24.27;56.36;93878.09;5104001;28;20024;-88
2022/06/06 08:31:11;;;;;;;20.33;4.80;;;;;;;24.32;57.52;93874.97;5085541;28;20031;-92
2022/06/06 08:33:40;;;;;;;20.17;5.38;;;;;;;24.43;56.94;93883.03;5102850;28;20043;-92
2022/06/06 08:36:32;;;;;;;31.25;5.35;;;;;;;24.60;56.64;93884.88;5103257;28;20039;-91
2022/06/06 08:39:12;;;;;;;23.70;4.82;;;;;;;24.67;55.45;93878.59;5103529;28;20089;-89
2022/06/06 08:41:50;;;;;;;16.83;4.20;;;;;;;24.77;55.26;93874.22;5084827;28;20024;-86
2022/06/06 08:44:39;;;;;;;18.50;4.78;;;;;;;24.96;55.37;93868.19;5103247;28;20020;-89
2022/06/06 08:47:19;;;;;;;15.60;3.95;;;;;;;25.25;53.02;93864.44;5065398;28;20035;-86
2022/06/06 08:52:48;;;;;;;17.75;3.60;;;;;;;25.12;53.20;93875.06;5103614;28;20222;-88
2022/06/06 08:55:36;;;;;;;11.50;3.80;;;;;;;25.09;52.65;93882.09;5084926;28;20039;-90
2022/06/06 08:58:39;;;;;;;20.90;4.90;;;;;;;25.05;52.56;93886.03;5084948;28;20028;-88
2022/06/06 09:01:14;;;;;;;17.00;3.85;;;;;;;24.90;53.86;93878.00;5103106;28;20031;-86
2022/06/06 09:04:21;;;;;;;25.20;6.30;;;;;;;24.82;53.88;93895.59;5085119;28;20020;-88
2022/06/06 09:07:22;;;;;;;17.60;4.53;;;;;;;24.71;54.03;93905.78;5103205;28;20043;-87
2022/06/06 09:10:03;;;;;;;6.15;2.85;;;;;;;24.22;51.70;93901.09;5103047;28;20016;-88
2022/06/06 09:12:43;;;;;;;9.30;2.25;;;;;;;24.09;50.81;93912.84;5084646;28;20058;-83
2022/06/06 09:15:59;;;;;;;6.82;2.50;;;;;;;23.92;51.55;93912.53;5102593;28;20089;-85
2022/06/06 09:18:43;;;;;;;9.82;3.17;;;;;;;23.85;53.17;93917.22;5102459;28;20044;-87
2022/06/06 09:21:23;;;;;;;13.13;3.63;;;;;;;23.74;53.58;93928.91;5104149;28;20110;-89
2022/06/06 09:24:12;;;;;;;9.88;3.17;;;;;;;23.62;55.17;93951.88;5102512;28;20051;-85
2022/06/06 09:27:16;;;;;;;6.25;3.88;;;;;;;23.55;56.49;93975.59;5084331;28;20036;-86
2022/06/06 09:30:19;;;;;;;10.80;3.28;;;;;;;23.51;57.30;93977.56;5104243;28;20023;-87
2022/06/06 09:32:54;;;;;;;11.10;3.88;;;;;;;23.50;57.45;93967.88;5107034;28;20314;-85
2022/06/06 09:35:39;;;;;;;7.22;2.72;;;;;;;23.57;57.74;93956.94;5106182;28;20036;-85
2022/06/06 09:38:42;;;;;;;13.25;3.15;;;;;;;23.67;56.61;93939.03;5106485;28;20118;-89
2022/06/06 09:41:33;;;;;;;16.25;3.25;;;;;;;23.63;56.54;93939.84;5106474;28;20096;-86
2022/06/06 09:44:23;;;;;;;6.65;3.05;;;;;;;23.70;55.39;93939.03;5106785;28;20027;-90
2022/06/06 09:47:20;;;;;;;6.68;2.30;;;;;;;23.89;53.81;93947.94;5107246;28;20031;-90
2022/06/06 09:50:04;;;;;;;9.18;2.63;;;;;;;23.99;51.98;93945.16;5107219;28;20032;-93
2022/06/06 09:53:07;;;;;;;6.97;2.50;;;;;;;24.01;53.80;93940.09;5106433;28;20019;-87
2022/06/06 10:02:19;;;;;;;6.95;2.90;;;;;;;24.75;50.29;93926.41;5063817;28;20027;-89
2022/06/06 10:05:07;;;;;;;12.90;2.78;;;;;;;24.98;49.73;93925.81;5105267;28;20180;-89
2022/06/06 10:08:36;;;;;;;9.32;2.63;;;;;;;25.17;47.00;93937.34;5087506;28;20035;-89
2022/06/06 10:11:19;;;;;;;7.50;2.80;;;;;;;25.21;45.00;93932.66;5091410;28;20028;-89
2022/06/06 10:14:09;;;;;;;8.20;2.45;;;;;;;25.32;46.05;93938.78;5105492;28;20094;-89
2022/06/06 10:17:16;;;;;;;7.22;2.75;;;;;;;25.41;45.41;93939.06;5087833;28;20024;-90
2022/06/06 10:19:47;;;;;;;9.25;2.72;;;;;;;25.51;46.24;93931.19;5104035;28;20440;-88
2022/06/06 10:22:35;;;;;;;12.93;4.75;;;;;;;25.60;45.16;93939.63;5104155;28;20024;-90
2022/06/06 10:25:12;;;;;;;6.28;3.40;;;;;;;25.60;44.64;93956.00;5103671;28;20063;-89
2022/06/06 10:27:56;;;;;;;7.63;3.35;;;;;;;25.49;44.05;93969.78;5104208;28;20015;-90
2022/06/06 10:30:49;;;;;;;5.78;2.67;;;;;;;25.34;44.95;93969.16;5104302;28;20024;-90
2022/06/06 10:33:27;;;;;;;17.95;5.05;;;;;;;25.23;48.24;93952.09;5104456;28;20214;-90
2022/06/06 10:36:29;;;;;;;16.25;4.53;;;;;;;24.98;52.01;93936.72;5105741;28;20047;-89
2022/06/06 10:39:22;;;;;;;15.10;4.20;;;;;;;24.81;53.64;93943.88;5105741;28;20024;-89
2022/06/06 10:42:10;;;;;;;27.05;6.55;;;;;;;24.66;55.13;93947.13;5105675;28;20028;-90
2022/06/06 10:44:54;;;;;;;17.92;4.80;;;;;;;24.42;54.14;93957.75;5105649;28;20066;-91
2022/06/06 10:47:38;;;;;;;7.57;3.20;;;;;;;24.33;54.69;93950.03;5105763;28;20024;-90
2022/06/06 10:50:13;;;;;;;5.47;2.58;;;;;;;24.26;56.28;93943.84;5105637;28;20031;-90
2022/06/06 10:53:00;;;;;;;8.95;3.40;;;;;;;24.15;56.79;93936.50;5105702;28;20023;-91
2022/06/06 10:55:28;;;;;;;9.18;3.03;;;;;;;24.10;55.75;93930.72;5105569;28;20028;-91
2022/06/06 10:58:27;;;;;;;6.97;2.53;;;;;;;24.02;56.30;93921.81;5105319;28;20030;-90
2022/06/06 11:01:18;;;;;;;4.55;2.75;;;;;;;23.86;56.78;93925.00;5105049;28;20330;-90
2022/06/06 11:04:15;;;;;;;8.45;3.20;;;;;;;23.77;58.77;93932.81;5105341;28;20028;-90
2022/06/06 11:07:20;;;;;;;11.65;3.22;;;;;;;23.71;60.34;93940.59;5104857;28;20087;-89
2022/06/06 11:09:58;;;;;;;5.93;3.85;;;;;;;23.62;61.00;93940.22;5104501;28;20260;-90
2022/06/06 11:13:00;;;;;;;7.20;3.88;;;;;;;23.56;61.19;93923.53;5104853;28;20040;-90
2022/06/06 11:15:58;;;;;;;9.18;4.75;;;;;;;23.42;60.61;93939.91;5101617;28;20036;-91
2022/06/06 11:18:36;;;;;;;9.32;3.45;;;;;;;23.42;59.51;93935.22;5104753;28;20094;-74
2022/06/06 11:21:42;;;;;;;8.02;2.72;;;;;;;23.42;58.93;93935.22;5104057;28;20047;-74
2022/06/06 11:24:32;;;;;;;9.45;3.58;;;;;;;23.41;59.64;93928.25;5059084;28;20042;-75
2022/06/06 11:27:28;;;;;;;9.85;3.40;;;;;;;23.46;60.04;93937.94;5103909;28;20062;-76
2022/06/06 11:30:19;;;;;;;13.55;3.95;;;;;;;23.49;59.46;93937.19;5103771;28;20031;-79
2022/06/06 11:33:00;;;;;;;11.75;3.75;;;;;;;23.48;59.76;93932.13;5103297;28;20031;-77
2022/06/06 11:35:43;;;;;;;9.25;3.72;;;;;;;23.50;60.35;93918.91;5103735;28;20028;-84
2022/06/06 11:38:43;;;;;;;13.00;3.70;;;;;;;23.54;59.74;93909.56;5103827;28;20032;-81
2022/06/06 11:41:35;;;;;;;8.90;4.47;;;;;;;23.52;61.63;93913.84;5103717;28;20020;-81
2022/06/06 11:44:08;;;;;;;5.43;3.42;;;;;;;23.55;60.61;93926.66;5072552;28;20036;-83
2022/06/06 11:46:58;;;;;;;6.35;3.58;;;;;;;23.57;58.35;93921.59;5103414;28;20031;-81
2022/06/06 11:49:38;;;;;;;6.63;3.00;;;;;;;23.62;58.37;93932.84;5085470;28;20049;-81
2022/06/06 11:52:10;;;;;;;5.55;3.22;;;;;;;23.69;57.97;93940.22;5103175;28;20028;-81
2022/06/06 11:55:20;;;;;;;9.17;3.53;;;;;;;23.66;56.87;93938.28;5103403;28;20099;-81
2022/06/06 11:57:48;;;;;;;6.53;3.55;;;;;;;23.51;56.62;93925.88;5087290;28;20074;-81
2022/06/06 12:00:21;;;;;;;6.18;2.90;;;;;;;23.50;57.56;93916.19;5103504;28;20027;-82
2022/06/06 12:03:05;;;;;;;5.45;2.95;;;;;;;23.42;56.16;93916.19;5103436;28;20027;-82
2022/06/06 12:05:56;;;;;;;6.80;4.30;;;;;;;23.36;57.99;93912.31;5103556;28;20226;-81
2022/06/06 12:08:27;;;;;;;5.35;3.38;;;;;;;23.34;60.05;93922.81;5103242;28;20334;-82
2022/06/06 12:11:27;;;;;;;10.15;3.78;;;;;;;23.35;62.08;93921.66;5103258;28;20020;-81
2022/06/06 12:14:05;;;;;;;4.22;2.50;;;;;;;23.27;60.22;93917.41;5103157;28;20099;-80
2022/06/06 12:16:55;;;;;;;7.80;3.05;;;;;;;23.28;58.89;93915.47;5103101;28;20024;-80
2022/06/06 12:19:59;;;;;;;14.20;3.75;;;;;;;23.24;59.88;93907.31;5102062;28;20031;-81
2022/06/06 12:22:30;;;;;;;9.50;3.63;;;;;;;23.22;59.65;93887.91;5084942;28;20019;-81
2022/06/06 12:25:23;;;;;;;7.57;4.00;;;;;;;23.24;59.98;93880.13;5102890;28;20044;-83
2022/06/06 12:28:17;;;;;;;8.05;4.72;;;;;;;23.20;60.16;93866.56;5103142;28;20199;-82
2022/06/06 12:31:41;;;;;;;8.32;3.45;;;;;;;23.18;59.20;93871.63;5102798;28;20089;-80
2022/06/06 12:34:14;;;;;;;9.75;4.07;;;;;;;23.13;58.42;93877.44;5060551;28;20270;-81
2022/06/06 12:36:52;;;;;;;9.32;4.15;;;;;;;23.17;58.33;93891.03;5060994;28;20037;-82
2022/06/06 12:39:48;;;;;;;8.45;4.50;;;;;;;23.28;56.99;93908.06;5091630;28;20103;-82
2022/06/06 12:42:32;;;;;;;8.75;4.80;;;;;;;23.35;56.41;93908.06;5102758;28;20330;-82
2022/06/06 12:45:21;;;;;;;5.78;4.05;;;;;;;23.41;55.69;93906.50;5102821;28;20094;-83
2022/06/06 12:48:02;;;;;;;11.00;4.80;;;;;;;23.44;56.51;93910.38;5102571;28;20203;-84
2022/06/06 12:51:04;;;;;;;8.73;4.45;;;;;;;23.57;56.60;93914.22;5102592;28;20335;-85
2022/06/06 12:53:30;;;;;;;9.40;5.05;;;;;;;23.65;55.96;93898.66;5102847;28;20047;-81
2022/06/06 12:56:19;;;;;;;8.73;4.97;;;;;;;23.80;55.82;93891.22;5102705;28;20028;-81
2022/06/06 12:58:58;;;;;;;12.82;3.97;;;;;;;23.99;55.72;93887.22;5102562;28;20314;-81